createdAt,value
2019-06-01T00:00:22.882Z,9.30
2019-06-01T00:04:28.142Z,9.30
2019-06-01T00:08:33.374Z,9.30
2019-06-01T00:12:39.290Z,9.30
2019-06-01T00:16:45.880Z,9.30
2019-06-01T00:20:52.638Z,9.40
2019-06-01T00:24:57.810Z,9.30
2019-06-01T00:29:02.970Z,9.20
2019-06-01T00:33:08.430Z,9.20
2019-06-01T00:37:13.654Z,9.10
2019-06-01T00:41:18.767Z,9.10
2019-06-01T00:45:23.902Z,9.00
2019-06-01T00:49:28.768Z,9.00
2019-06-01T00:53:33.657Z,9.10
2019-06-01T00:57:38.654Z,9.00
2019-06-01T01:01:43.858Z,9.00
2019-06-01T01:05:48.827Z,9.00
2019-06-01T01:09:54.928Z,8.90
2019-06-01T01:14:00.123Z,8.90
2019-06-01T01:18:05.769Z,8.80
2019-06-01T01:22:10.663Z,8.80
2019-06-01T01:26:15.560Z,8.80
2019-06-01T01:30:20.638Z,8.70
2019-06-01T01:34:25.662Z,8.70
2019-06-01T01:38:30.645Z,8.70
2019-06-01T01:42:35.821Z,8.60
2019-06-01T01:51:01.162Z,8.60
2019-06-01T01:55:07.462Z,8.60
2019-06-01T01:59:12.445Z,8.50
2019-06-01T02:03:17.663Z,8.50
2019-06-01T02:07:22.485Z,8.50
2019-06-01T02:11:27.418Z,8.40
2019-06-01T02:15:33.378Z,8.40
2019-06-01T02:19:38.400Z,8.40
2019-06-01T02:23:43.258Z,8.40
2019-06-01T02:27:48.160Z,8.40
2019-06-01T02:31:54.639Z,8.40
2019-06-01T02:36:00.642Z,8.40
2019-06-01T02:40:07.286Z,8.40
2019-06-01T02:44:12.208Z,8.30
2019-06-01T02:48:17.099Z,8.30
2019-06-01T02:52:21.967Z,8.30
2019-06-01T02:56:26.834Z,8.20
2019-06-01T03:01:12.003Z,8.20
2019-06-01T03:05:16.931Z,8.20
2019-06-01T03:09:23.839Z,8.20
2019-06-01T03:13:31.608Z,8.30
2019-06-01T03:17:39.745Z,8.30
2019-06-01T03:21:47.733Z,8.30
2019-06-01T03:25:53.780Z,8.40
2019-06-01T03:29:59.075Z,8.40
2019-06-01T03:34:06.907Z,8.40
2019-06-01T03:38:12.453Z,8.40
2019-06-01T03:42:17.660Z,8.40
2019-06-01T03:46:22.678Z,8.40
2019-06-01T03:50:27.598Z,8.40
2019-06-01T03:54:32.459Z,8.50
2019-06-01T03:58:37.345Z,8.50
2019-06-01T04:02:42.259Z,8.60
2019-06-01T04:06:47.142Z,8.60
2019-06-01T04:10:52.080Z,8.60
2019-06-01T04:14:56.971Z,8.70
2019-06-01T04:19:01.867Z,8.90
2019-06-01T04:23:08.080Z,9.00
2019-06-01T04:27:13.058Z,9.20
2019-06-01T04:31:18.183Z,9.30
2019-06-01T04:35:23.070Z,9.40
2019-06-01T04:39:28.068Z,9.50
2019-06-01T04:43:32.930Z,9.70
2019-06-01T04:47:37.806Z,10.00
2019-06-01T04:51:42.719Z,10.30
2019-06-01T04:55:47.620Z,10.50
2019-06-01T04:59:52.509Z,10.80
2019-06-01T05:03:57.414Z,11.10
2019-06-01T05:08:02.338Z,11.40
2019-06-01T05:12:07.734Z,11.70
2019-06-01T05:16:14.512Z,11.80
2019-06-01T05:20:19.420Z,12.00
2019-06-01T05:24:24.470Z,12.30
2019-06-01T05:28:29.902Z,12.40
2019-06-01T05:32:34.825Z,12.50
2019-06-01T05:36:40.098Z,12.70
2019-06-01T05:40:44.978Z,12.80
2019-06-01T05:44:49.872Z,13.00
2019-06-01T05:48:54.929Z,13.10
2019-06-01T05:53:00.121Z,13.20
2019-06-01T06:01:54.453Z,13.30
2019-06-01T06:05:59.945Z,13.40
2019-06-01T06:10:07.026Z,13.50
2019-06-01T06:14:13.367Z,13.70
2019-06-01T06:18:19.762Z,14.00
2019-06-01T06:22:24.998Z,14.20
2019-06-01T06:26:30.403Z,14.30
2019-06-01T06:30:35.999Z,14.30
2019-06-01T06:34:41.941Z,14.60
2019-06-01T06:38:50.226Z,14.90
2019-06-01T06:42:55.834Z,15.30
2019-06-01T06:47:01.198Z,15.70
2019-06-01T06:51:06.718Z,16.30
2019-06-01T06:55:12.109Z,16.80
2019-06-01T06:59:18.278Z,17.40
2019-06-01T07:03:23.655Z,18.00
2019-06-01T07:07:28.512Z,18.50
2019-06-01T07:11:33.397Z,19.20
2019-06-01T07:15:38.593Z,19.40
2019-06-01T07:19:44.175Z,19.60
2019-06-01T07:23:49.189Z,19.70
2019-06-01T07:27:54.162Z,19.80
2019-06-01T07:31:59.447Z,19.80
2019-06-01T07:36:05.813Z,19.80
2019-06-01T07:40:13.580Z,19.80
2019-06-01T07:44:17.479Z,20.10
2019-06-01T07:48:23.109Z,20.30
2019-06-01T07:52:28.434Z,20.50
2019-06-01T07:56:33.663Z,20.90
2019-06-01T08:00:39.047Z,21.00
2019-06-01T08:04:53.133Z,20.90
2019-06-01T08:08:51.129Z,20.90
2019-06-01T08:12:56.448Z,21.20
2019-06-01T08:17:01.904Z,21.30
2019-06-01T08:21:07.399Z,21.50
2019-06-01T08:25:12.851Z,21.80
2019-06-01T08:29:18.103Z,22.00
2019-06-01T08:33:26.469Z,22.30
2019-06-01T08:37:31.408Z,22.60
2019-06-01T08:41:36.967Z,22.60
2019-06-01T08:45:42.171Z,22.80
2019-06-01T08:49:47.332Z,24.10
2019-06-01T08:53:52.582Z,24.10
2019-06-01T08:57:57.881Z,23.70
2019-06-01T09:02:03.251Z,23.30
2019-06-01T09:06:08.689Z,23.40
2019-06-01T09:10:13.946Z,24.80
2019-06-01T09:14:19.350Z,25.50
2019-06-01T09:18:25.735Z,25.90
2019-06-01T09:22:31.583Z,27.30
2019-06-01T09:26:36.750Z,27.60
2019-06-01T09:30:41.929Z,28.10
2019-06-01T09:34:47.182Z,28.90
2019-06-01T09:38:52.407Z,27.70
2019-06-01T09:42:57.545Z,26.20
2019-06-01T09:47:02.706Z,25.50
2019-06-01T09:51:08.378Z,26.00
2019-06-01T09:55:13.845Z,27.80
2019-06-01T09:59:19.132Z,28.60
2019-06-01T10:03:24.237Z,26.20
2019-06-01T10:07:30.845Z,25.40
2019-06-01T10:11:36.221Z,24.50
2019-06-01T10:15:42.902Z,24.00
2019-06-01T10:19:48.324Z,24.00
2019-06-01T10:23:53.287Z,26.20
2019-06-01T10:27:58.604Z,28.80
2019-06-01T10:32:04.085Z,27.10
2019-06-01T10:36:19.795Z,25.70
2019-06-01T10:40:17.109Z,25.30
2019-06-01T10:44:22.303Z,25.40
2019-06-01T10:48:27.598Z,26.30
2019-06-01T10:52:34.468Z,25.40
2019-06-01T10:56:40.550Z,25.40
2019-06-01T11:00:50.858Z,26.50
2019-06-01T11:04:52.898Z,26.20
2019-06-01T11:08:58.342Z,25.80
2019-06-01T11:13:03.551Z,25.70
2019-06-01T11:17:09.129Z,25.00
2019-06-01T11:21:14.479Z,24.90
2019-06-01T11:25:19.923Z,27.50
2019-06-01T11:29:25.172Z,29.90
2019-06-01T11:33:30.378Z,30.10
2019-06-01T11:37:36.154Z,29.60
2019-06-01T11:41:42.632Z,30.60
2019-06-01T11:45:47.596Z,31.90
2019-06-01T11:49:52.784Z,30.40
2019-06-01T11:53:58.025Z,28.60
2019-06-01T11:58:03.378Z,27.50
2019-06-01T12:02:09.427Z,27.60
2019-06-01T12:06:14.599Z,28.60
2019-06-01T12:10:19.706Z,26.90
2019-06-01T12:14:25.330Z,26.50
2019-06-01T12:18:30.801Z,27.80
2019-06-01T12:22:36.708Z,27.90
2019-06-01T12:26:43.470Z,29.90
2019-06-01T12:30:48.868Z,32.10
2019-06-01T12:34:54.186Z,31.50
2019-06-01T12:38:59.416Z,33.20
2019-06-01T12:43:06.644Z,31.60
2019-06-01T12:47:13.293Z,30.40
2019-06-01T12:51:19.052Z,31.00
2019-06-01T12:55:24.360Z,34.00
2019-06-01T12:59:30.672Z,34.80
2019-06-01T13:03:35.889Z,32.40
2019-06-01T13:07:52.178Z,29.50
2019-06-01T13:11:49.354Z,27.60
2019-06-01T13:20:06.664Z,27.20
2019-06-01T13:24:11.808Z,26.80
2019-06-01T13:28:17.228Z,26.60
2019-06-01T13:32:22.603Z,27.60
2019-06-01T13:36:28.050Z,28.30
2019-06-01T13:40:33.270Z,28.50
2019-06-01T13:44:38.686Z,30.10
2019-06-01T13:48:45.460Z,29.40
2019-06-01T13:52:51.906Z,31.50
2019-06-01T13:56:57.670Z,30.90
2019-06-01T14:01:03.058Z,31.40
2019-06-01T14:05:08.795Z,30.60
2019-06-01T14:09:13.723Z,28.80
2019-06-01T14:13:19.024Z,29.60
2019-06-01T14:17:23.912Z,31.60
2019-06-01T14:21:29.007Z,33.80
2019-06-01T14:25:34.284Z,31.60
2019-06-01T14:29:39.407Z,30.10
2019-06-01T14:33:44.367Z,30.20
2019-06-01T14:37:51.288Z,31.70
2019-06-01T14:41:56.291Z,30.20
2019-06-01T14:46:01.460Z,29.60
2019-06-01T14:50:07.780Z,28.20
2019-06-01T14:54:12.670Z,27.30
2019-06-01T14:58:17.578Z,27.00
2019-06-01T15:02:22.786Z,26.90
2019-06-01T15:06:28.172Z,26.80
2019-06-01T15:10:33.132Z,26.50
2019-06-01T15:14:38.530Z,26.30
2019-06-01T15:18:44.137Z,25.60
2019-06-01T15:22:50.014Z,25.30
2019-06-01T15:26:55.325Z,25.30
2019-06-01T15:31:00.388Z,25.30
2019-06-01T15:35:05.927Z,25.40
2019-06-01T15:39:24.300Z,25.60
2019-06-01T15:43:18.052Z,27.30
2019-06-01T15:47:23.646Z,30.10
2019-06-01T15:51:28.619Z,31.80
2019-06-01T15:55:33.536Z,32.90
2019-06-01T15:59:47.159Z,34.30
2019-06-01T16:03:53.198Z,33.10
2019-06-01T16:07:59.310Z,33.40
2019-06-01T16:12:04.602Z,33.20
2019-06-01T16:16:10.027Z,31.80
2019-06-01T16:20:21.338Z,29.60
2019-06-01T16:24:26.635Z,28.50
2019-06-01T16:28:31.814Z,27.30
2019-06-01T16:32:39.382Z,26.50
2019-06-01T16:36:43.341Z,25.80
2019-06-01T16:40:48.287Z,25.20
2019-06-01T16:44:53.715Z,24.80
2019-06-01T16:48:59.514Z,24.40
2019-06-01T16:53:04.533Z,24.00
2019-06-01T16:57:11.236Z,23.70
2019-06-01T17:01:16.207Z,23.70
2019-06-01T17:05:21.221Z,23.60
2019-06-01T17:09:26.119Z,23.60
2019-06-01T17:13:31.209Z,23.70
2019-06-01T17:17:36.343Z,23.60
2019-06-01T17:21:41.358Z,23.50
2019-06-01T17:25:46.703Z,23.20
2019-06-01T17:29:51.718Z,23.00
2019-06-01T17:34:00.411Z,22.70
2019-06-01T17:38:05.560Z,22.40
2019-06-01T17:42:12.631Z,22.20
2019-06-01T17:46:18.304Z,22.00
2019-06-01T17:50:23.453Z,21.80
2019-06-01T17:54:28.382Z,21.50
2019-06-01T17:58:38.293Z,21.20
2019-06-01T18:02:43.394Z,20.90
2019-06-01T18:06:48.339Z,20.60
2019-06-01T18:10:55.296Z,20.40
2019-06-01T18:15:00.531Z,20.10
2019-06-01T18:19:06.350Z,19.90
2019-06-01T18:23:11.901Z,19.80
2019-06-01T18:27:18.491Z,19.70
2019-06-01T18:31:23.486Z,19.50
2019-06-01T18:35:28.848Z,19.50
2019-06-01T18:39:34.599Z,19.30
2019-06-01T18:43:39.698Z,19.20
2019-06-01T18:47:44.982Z,19.00
2019-06-01T18:51:50.216Z,18.80
2019-06-01T18:55:55.472Z,18.60
2019-06-01T19:00:00.359Z,18.40
2019-06-01T19:04:05.419Z,18.30
2019-06-01T19:08:11.564Z,18.30
2019-06-01T19:12:17.303Z,18.30
2019-06-01T19:16:22.820Z,18.40
2019-06-01T19:24:50.630Z,18.50
2019-06-01T19:28:57.494Z,18.50
2019-06-01T19:33:02.440Z,18.50
2019-06-01T19:37:08.938Z,18.50
2019-06-01T19:41:15.352Z,18.40
2019-06-01T19:45:28.868Z,18.30
2019-06-01T19:49:27.081Z,18.20
2019-06-01T19:53:32.470Z,18.10
2019-06-01T19:57:37.475Z,18.00
2019-06-01T20:01:46.522Z,17.80
2019-06-01T20:05:51.747Z,17.70
2019-06-01T20:09:56.922Z,17.60
2019-06-01T20:14:01.864Z,17.50
2019-06-01T20:18:07.444Z,17.50
2019-06-01T20:22:12.780Z,17.40
2019-06-01T20:26:17.814Z,17.40
2019-06-01T20:30:23.501Z,17.30
2019-06-01T20:34:28.390Z,17.30
2019-06-01T20:38:33.970Z,17.20
2019-06-01T20:42:39.386Z,17.10
2019-06-01T20:46:45.182Z,17.00
2019-06-01T20:50:53.048Z,17.00
2019-06-01T20:54:58.635Z,16.90
2019-06-01T20:59:03.847Z,17.00
2019-06-01T21:03:09.444Z,16.90
2019-06-01T21:07:15.742Z,16.90
2019-06-01T21:11:20.828Z,16.70
2019-06-01T21:15:26.069Z,16.70
2019-06-01T21:19:31.458Z,16.60
2019-06-01T21:23:36.371Z,16.60
2019-06-01T21:27:41.396Z,16.50
2019-06-01T21:31:46.402Z,16.50
2019-06-01T21:35:55.864Z,16.40
2019-06-01T21:40:00.751Z,16.40
2019-06-01T21:44:05.733Z,16.30
2019-06-01T21:48:11.181Z,16.30
2019-06-01T21:52:16.159Z,16.30
2019-06-01T21:56:22.738Z,16.30
2019-06-01T22:00:34.290Z,16.30
2019-06-01T22:04:39.172Z,16.30
2019-06-01T22:08:52.283Z,16.20
2019-06-01T22:12:50.699Z,16.10
2019-06-01T22:16:55.547Z,16.20
2019-06-01T22:21:00.457Z,16.20
2019-06-01T22:25:05.926Z,16.10
2019-06-01T22:29:11.304Z,15.90
2019-06-01T22:33:16.213Z,15.70
2019-06-01T22:37:21.634Z,15.50
2019-06-01T22:41:26.538Z,15.40
2019-06-01T22:45:31.537Z,15.30
2019-06-01T22:49:36.540Z,15.10
2019-06-01T22:53:41.493Z,15.00
2019-06-01T22:57:46.377Z,14.90
2019-06-01T23:01:51.281Z,14.90
2019-06-01T23:05:56.162Z,14.80
2019-06-01T23:10:01.072Z,14.80
2019-06-01T23:14:06.350Z,14.90
2019-06-01T23:18:11.840Z,14.90
2019-06-01T23:22:16.770Z,15.00
2019-06-01T23:26:22.117Z,15.10
2019-06-01T23:30:28.266Z,15.10
2019-06-01T23:34:33.196Z,15.10
2019-06-01T23:38:38.078Z,15.20
2019-06-01T23:42:43.049Z,15.20
2019-06-01T23:46:47.995Z,15.10
2019-06-01T23:50:52.899Z,15.20
2019-06-01T23:54:57.989Z,15.20
2019-06-01T23:59:02.896Z,15.10
